Aérodrome :
LOGIN :

S'inscrire | Disclaimer

   EN    FR    IT 

 










Légende :    VFR   VFR Marginal   IFR   IFR Intensif   IFR Très Intensif
Visi : 
Plafond : 
>= 8 km
>= 3000ft
5 à 8 km
1000 à 3000 ft
1500m à 5 km
500 à 1000 ft
800 à 1500m
200 à 500 ft
< 800m
< 200 ft
Symboles :   Orages  Brouillard  Fortes neiges  Fortes précipitations  Vent > 20 kt
SIGMETs :   Divers  Orages  Givrage  Turbulence  Onde Orograph.  Cendres Volcan.







- Altitude de l'aérodrome : 1299 ft


EDTY - Adolf Würth

DERNIER METAR :
  • 210550Z 26016KT 9000 -RA BKN008 BKN015 OVC037 11/11 Q1005 RERA

METARs EXPIRÉS :
  • 210520Z 26014G24KT 4000 RA BR BKN007 BKN019 OVC039 11/11 Q1005
  • 210450Z 26015KT 4000 RA BR BKN006TCU BKN013 BKN049 11/11 Q1006
  • 210420Z 27014KT 5000 -RA BKN006TCU OVC012 11/11 Q1006

TAF TAF EDTY
Valide du 21 à 06h jusqu'au 21 à 15h UTC


210500Z 2106/2115 27015G30KT 8000 BKN007 BKN012
TEMPO 2106/2115 3000 RA
PROB30
TEMPO 2106/2109 BKN004
Pas de NOTAMs connus pour ce terrain.



MET'MAP, la Météo Aéronautique d'un coup d'oeil ! - Copyright ORBIFLY Décembre 2007 - Disclaimer

ORBIFLY MET'MAP TEAM :

Programmation & Développement : Alexandra Zaïnal
Conception & Développement : Baudouin d'Aumeries
Co-Programmation & Développement : Marc-Olivier Méhu
Soutien technique & logistique : Manuel Goepfert

Contact : metmap@orbifly.com




SOURCES & CREDITS :

   NOAA